MUC | München Airways

 METAR UND TAF INFORMATION

METAR FOR EDDW
ADDS - METARS form results

(1356 UTC 24 January 2019)
Data provider http://aviationweather.gov/metar/data/
 
METAR text: EDDW 241350Z VRB03KT 8000 FEW018 BKN025 M03/M07 Q1012 NOSIG
Conditions at: EDDW (BREMEN , DE) observed 1350 UTC 24 January 2019
Temperature: -3.0°C (27°F)
Dewpoint: -7.0°C (19°F) [RH = 74%]
Pressure (altimeter): 29.88 inches Hg (1012.0 mb)
Winds: variable direction winds at 3 MPH (3 knots; 1.5 m/s)
Visibility: 5 miles ( 8 km)
Ceiling: 2500 feet AGL
Clouds: few clouds at 1800 feet AGL
broken clouds at 2500 feet AGL
Weather: no significant weather observed at this time

METAR text: EDDW 241320Z VRB02KT 8000 FEW018 BKN024 M03/M07 Q1012 NOSIG
Conditions at: EDDW (BREMEN , DE) observed 1320 UTC 24 January 2019
Temperature: -3.0°C (27°F)
Dewpoint: -7.0°C (19°F) [RH = 74%]
Pressure (altimeter): 29.88 inches Hg (1012.0 mb)
Winds: variable direction winds at 2 MPH (2 knots; 1.0 m/s)
Visibility: 5 miles ( 8 km)
Ceiling: 2400 feet AGL
Clouds: few clouds at 1800 feet AGL
broken clouds at 2400 feet AGL
Weather: no significant weather observed at this time

Forecast for: EDDW (BREMEN , DE)
Text: TAF EDDW 241100Z 2412/2512 09004KT 9999 BKN020
Forecast period: 1200 UTC 24 January 2019 to 0500 UTC 25 January 2019
Forecast type: FROM: standard forecast or significant change
Winds: from the E (90 degrees) at 5 MPH (4 knots; 2.1 m/s)
Visibility: 6 or more miles 10+ km)
Ceiling: 2000 feet AGL
Clouds: broken clouds at 2000 feet AGL
Weather: no significant weather forecast for this period
Text: BECMG 2505/2507 17005KT
Forecast period: 0500 to 1200 UTC 25 January 2019
Forecast type: BECOMING: Conditions expected to become as follows by 0700 UTC 25 January 2019
Winds: from the S (170 degrees) at 6 MPH (5 knots; 2.6 m/s)
Visibility: 6 or more miles 10+ km)
Ceiling: 2000 feet AGL
Clouds: broken clouds at 2000 feet AGL
Weather: no significant weather forecast for this period

 FLUGHAFENKARTE

 RUNWAY INFORMATION
Runway 05 Runway length 2297 ft Runway width 75 ft
Runway elevation 0 ft Runway displaced threshold 0 ft Runway heading 52
Runway 23 Runway length 2297 ft Runway width 75 ft
Runway elevation 13 ft Runway displaced threshold 0 ft Runway heading 232
Runway 09 Runway length 6693 ft Runway width 148 ft
Runway elevation 13 ft Runway displaced threshold 0 ft Runway heading 88
Runway 27 Runway length 6693 ft Runway width 148 ft
Runway elevation 14 ft Runway displaced threshold 0 ft Runway heading 268

 AIRPORT FREQUENCIES
Type AFIS Name INFO Frequency 125.1 MHZ
Type APP Name RADAR Frequency 124.8 MHZ
Type ATIS Name ATIS Frequency 117.45 MHZ
Type GND Name GND Frequency 121.75 MHZ
Type TWR Name TWR Frequency 120.325 MHZ

 AIRPORT NEAR NAVIGATION AIDS
Type VOR-DME Name Bremen Frequency 117450 KHZ